Time;durP1;ratioP1;P1;durP2;ratioP2;P2;SDS_P1;SDS_P2;PMS_P1;PMS_P2;Temp;Humidity;BMP_temperature;BMP_pressure;BME280_temperature;BME280_humidity;BME280_pressure;Samples;Min_cycle;Max_cycle;Signal;HPM_P1;HPM_P2
2022/02/03 00:01:28;;;;;;;22.00;20.67;;;7.90;97.30;;;;;;5053454;28;20221;-73
2022/02/03 00:04:03;;;;;;;23.40;21.70;;;7.80;97.10;;;;;;5053137;28;20200;-73
2022/02/03 00:06:46;;;;;;;22.33;20.98;;;7.80;96.80;;;;;;5053524;28;20192;-72
2022/02/03 00:09:42;;;;;;;22.20;20.60;;;7.80;97.10;;;;;;5053387;28;20200;-73
2022/02/03 00:23:37;;;;;;;21.08;19.58;;;7.80;97.40;;;;;;5053291;28;20238;-73
2022/02/03 00:26:06;;;;;;;21.50;20.10;;;7.80;97.50;;;;;;5052851;28;20197;-73
2022/02/03 00:28:40;;;;;;;22.10;20.63;;;7.80;97.30;;;;;;5052963;28;20516;-72
2022/02/03 00:31:12;;;;;;;391.73;55.47;;;7.80;97.40;;;;;;5052698;28;20227;-72
2022/02/03 00:33:50;;;;;;;22.27;20.85;;;7.80;97.30;;;;;;5053084;28;20561;-73
2022/02/03 00:36:22;;;;;;;84.13;27.23;;;7.80;97.40;;;;;;5052851;28;20230;-72
2022/02/03 00:50:00;;;;;;;472.45;60.72;;;7.70;97.50;;;;;;5052472;28;20231;-72
2022/02/03 00:52:28;;;;;;;108.05;31.75;;;7.80;99.40;;;;;;5052725;28;20201;-73
2022/02/03 00:54:55;;;;;;;22.50;20.90;;;7.90;98.10;;;;;;5052547;28;20255;-72
2022/02/03 00:57:30;;;;;;;22.77;21.27;;;7.80;98.60;;;;;;5052525;28;20200;-72
2022/02/03 01:00:04;;;;;;;25.00;23.00;;;7.80;98.40;;;;;;5052108;28;20226;-72
2022/02/03 01:02:35;;;;;;;23.05;21.35;;;7.80;98.30;;;;;;5052706;28;20232;-73
2022/02/03 01:05:05;;;;;;;23.35;21.75;;;7.80;98.10;;;;;;5052432;28;20722;-73
2022/02/03 01:07:35;;;;;;;23.17;21.58;;;7.80;98.00;;;;;;5052529;28;20203;-72
2022/02/03 01:10:08;;;;;;;560.72;75.57;;;7.70;97.90;;;;;;5052268;28;20232;-72
2022/02/03 01:12:44;;;;;;;23.42;21.05;;;7.80;97.80;;;;;;5052204;28;20660;-72
2022/02/03 01:15:20;;;;;;;22.17;20.63;;;7.80;97.70;;;;;;5051705;28;20266;-73
2022/02/03 01:17:57;;;;;;;22.52;21.05;;;7.80;97.60;;;;;;5052379;28;20242;-73
2022/02/03 01:34:41;;;;;;;21.23;19.85;;;7.90;97.20;;;;;;5010553;28;20604;-73
2022/02/03 01:37:23;;;;;;;21.98;20.35;;;7.90;97.00;;;;;;5038521;28;20225;-73
2022/02/03 01:45:25;;;;;;;21.73;20.23;;;7.90;97.00;;;;;;5052083;28;20215;-72
2022/02/03 01:48:06;;;;;;;21.85;20.35;;;7.90;97.50;;;;;;5051998;28;20200;-73
2022/02/03 01:53:23;;;;;;;21.17;19.67;;;7.90;97.40;;;;;;5052165;28;20334;-73
2022/02/03 01:56:02;;;;;;;22.17;20.67;;;8.00;97.10;;;;;;5051901;28;20220;-73
2022/02/03 01:58:32;;;;;;;21.55;19.95;;;8.00;97.00;;;;;;5051896;28;20204;-73
2022/02/03 02:01:01;;;;;;;20.85;19.55;;;7.90;97.10;;;;;;5051653;28;20225;-72
2022/02/03 02:03:38;;;;;;;20.63;19.23;;;7.90;97.30;;;;;;5051785;28;20222;-72
2022/02/03 02:06:23;;;;;;;20.92;19.52;;;7.90;97.30;;;;;;5051816;28;20192;-73
2022/02/03 02:09:01;;;;;;;21.25;19.85;;;7.90;97.40;;;;;;5051849;28;20561;-72
2022/02/03 02:11:44;;;;;;;21.10;19.80;;;7.90;97.40;;;;;;5051690;28;20216;-73
2022/02/03 02:14:46;;;;;;;21.35;19.95;;;7.90;97.40;;;;;;5051923;28;20205;-73
2022/02/03 02:17:57;;;;;;;21.80;20.40;;;7.90;97.40;;;;;;5051405;28;20216;-72
2022/02/03 02:37:34;;;;;;;20.55;19.25;;;7.80;96.90;;;;;;5055123;28;20215;-72
2022/02/03 02:40:30;;;;;;;21.92;20.35;;;7.80;96.80;;;;;;5054620;28;20713;-72
2022/02/03 02:43:03;;;;;;;21.30;19.92;;;7.90;96.90;;;;;;5054832;28;20196;-72
2022/02/03 02:45:43;;;;;;;19.55;18.30;;;8.00;96.70;;;;;;5054907;28;20220;-72
2022/02/03 02:48:29;;;;;;;21.30;19.80;;;7.90;96.50;;;;;;5054903;28;20204;-72
2022/02/03 02:51:07;;;;;;;20.80;19.40;;;7.90;96.60;;;;;;5054603;28;20571;-72
2022/02/03 02:53:55;;;;;;;21.40;19.83;;;8.00;96.50;;;;;;5054852;28;20196;-72
2022/02/03 02:56:31;;;;;;;21.02;19.73;;;7.90;96.70;;;;;;5054699;28;20220;-72
2022/02/03 02:59:21;;;;;;;74.00;25.25;;;7.90;96.80;;;;;;5054439;28;20204;-72
2022/02/03 03:29:58;;;;;;;19.63;18.42;;;8.10;96.80;;;;;;5012127;28;20340;-72
2022/02/03 03:32:43;;;;;;;73.70;22.27;;;8.10;96.70;;;;;;5041347;28;20200;-72
2022/02/03 03:35:28;;;;;;;19.80;18.50;;;8.10;96.80;;;;;;5053943;28;20640;-73
2022/02/03 03:37:58;;;;;;;20.25;18.95;;;8.10;96.70;;;;;;5053732;28;20250;-72
2022/02/03 03:40:28;;;;;;;21.33;20.02;;;8.20;96.00;;;;;;5053330;28;20220;-72
2022/02/03 03:43:02;;;;;;;20.00;18.60;;;8.10;96.00;;;;;;5053885;28;20254;-72
2022/02/03 03:45:31;;;;;;;19.52;18.13;;;8.00;96.10;;;;;;5053742;28;20200;-72
2022/02/03 03:48:01;;;;;;;19.88;18.58;;;8.00;96.40;;;;;;5053735;28;20307;-72
2022/02/03 03:50:30;;;;;;;20.02;18.63;;;8.10;95.90;;;;;;5053507;28;20220;-72
2022/02/03 03:53:05;;;;;;;20.00;18.60;;;8.00;96.00;;;;;;5053628;28;20201;-72
2022/02/03 03:55:43;;;;;;;21.33;19.83;;;8.00;97.00;;;;;;5053567;28;20204;-73
2022/02/03 04:30:30;;;;;;;71.05;26.05;;;7.80;96.50;;;;;;5052927;28;20558;-72
2022/02/03 05:00:22;;;;;;;22.58;21.13;;;7.70;97.20;;;;;;5050187;28;20346;-72
2022/02/03 05:03:14;;;;;;;20.58;19.27;;;7.70;97.60;;;;;;5052320;28;20208;-72
2022/02/03 05:06:02;;;;;;;22.52;21.02;;;7.80;97.20;;;;;;5052393;28;20204;-72
2022/02/03 05:08:52;;;;;;;22.15;20.77;;;7.70;97.70;;;;;;5052442;28;20204;-73
2022/02/03 05:11:53;;;;;;;23.67;22.17;;;7.70;98.50;;;;;;5052167;28;20298;-73
2022/02/03 05:20:51;;;;;;;42.00;23.00;;;7.60;98.10;;;;;;5052086;28;20216;-73
2022/02/03 05:26:50;;;;;;;299.27;45.88;;;7.60;99.30;;;;;;5048370;28;20188;-73
2022/02/03 05:42:17;;;;;;;21.60;20.30;;;7.50;98.10;;;;;;5051974;28;20264;-73
2022/02/03 05:45:18;;;;;;;39.78;25.02;;;7.40;97.90;;;;;;5051904;28;20681;-73
2022/02/03 05:51:03;;;;;;;23.23;21.75;;;7.40;98.40;;;;;;5051795;28;20211;-73
2022/02/03 06:02:04;;;;;;;23.20;21.50;;;7.20;98.90;;;;;;5052937;28;20305;-73
2022/02/03 06:04:47;;;;;;;24.95;23.27;;;7.30;99.40;;;;;;5055843;28;20204;-73
2022/02/03 06:07:45;;;;;;;24.02;22.45;;;7.30;99.20;;;;;;5055627;28;20201;-73
2022/02/03 06:13:04;;;;;;;24.40;22.52;;;7.30;97.80;;;;;;5055194;28;20566;-73
2022/02/03 06:15:41;;;;;;;23.00;21.40;;;7.20;97.70;;;;;;5055445;28;20208;-73
2022/02/03 06:23:48;;;;;;;23.75;22.10;;;7.30;98.30;;;;;;5055309;28;20257;-73
2022/02/03 06:29:01;;;;;;;25.50;23.58;;;7.40;98.00;;;;;;5055207;28;20196;-73
2022/02/03 06:31:29;;;;;;;23.90;22.17;;;7.40;97.90;;;;;;5055123;28;20247;-73
2022/02/03 06:33:57;;;;;;;25.98;23.90;;;7.50;97.20;;;;;;5055042;28;20207;-72
2022/02/03 06:36:24;;;;;;;23.10;21.48;;;7.50;97.00;;;;;;5054870;28;20216;-73
2022/02/03 06:38:51;;;;;;;24.20;22.50;;;7.50;97.50;;;;;;5055060;28;20203;-73
2022/02/03 06:41:18;;;;;;;24.83;23.08;;;7.50;97.40;;;;;;5054930;28;20221;-72
2022/02/03 06:43:45;;;;;;;23.58;21.98;;;7.40;97.50;;;;;;5054837;28;20193;-72
2022/02/03 06:46:13;;;;;;;25.40;23.50;;;7.50;97.30;;;;;;5054913;28;20597;-72
2022/02/03 06:48:47;;;;;;;24.45;22.58;;;7.50;97.00;;;;;;5054643;28;20197;-73
2022/02/03 06:51:20;;;;;;;24.63;22.83;;;7.50;96.80;;;;;;5054580;28;20215;-73
2022/02/03 06:53:52;;;;;;;25.13;23.35;;;7.50;96.50;;;;;;5054752;28;20204;-73
2022/02/03 06:56:29;;;;;;;25.85;23.95;;;7.60;96.50;;;;;;5054569;28;20227;-73
2022/02/03 06:59:00;;;;;;;26.17;24.00;;;7.60;95.60;;;;;;5054480;28;20197;-73
2022/02/03 07:01:30;;;;;;;25.25;23.45;;;7.50;95.50;;;;;;5054342;28;20213;-73
2022/02/03 07:04:02;;;;;;;23.30;21.70;;;7.60;95.30;;;;;;5054566;28;20200;-72
2022/02/03 07:06:29;;;;;;;23.30;21.60;;;7.60;95.50;;;;;;5054507;28;20193;-72
2022/02/03 07:08:58;;;;;;;22.23;20.63;;;7.60;95.60;;;;;;5054467;28;20254;-72
2022/02/03 07:11:25;;;;;;;25.40;23.60;;;7.60;95.40;;;;;;5054187;28;20282;-72
2022/02/03 07:13:52;;;;;;;25.20;23.30;;;7.70;95.30;;;;;;5053117;28;20210;-73
2022/02/03 07:16:19;;;;;;;24.13;22.45;;;7.70;95.40;;;;;;5054201;28;20223;-73
2022/02/03 07:18:46;;;;;;;26.60;24.60;;;7.60;95.70;;;;;;5053950;28;20654;-73
2022/02/03 07:21:14;;;;;;;25.30;23.33;;;7.60;95.80;;;;;;5054013;28;20647;-72
2022/02/03 07:23:41;;;;;;;22.67;21.08;;;7.70;95.60;;;;;;5054319;28;20279;-73
2022/02/03 07:26:08;;;;;;;23.30;21.80;;;7.60;95.60;;;;;;5054095;28;20197;-73
2022/02/03 07:28:35;;;;;;;25.55;23.77;;;7.60;95.50;;;;;;5053943;28;20228;-73
2022/02/03 07:31:02;;;;;;;23.50;22.00;;;7.60;95.70;;;;;;5053914;28;20212;-72
2022/02/03 07:33:31;;;;;;;23.60;22.15;;;7.70;95.50;;;;;;5054184;28;20196;-72
2022/02/03 07:35:58;;;;;;;22.77;21.17;;;7.70;95.30;;;;;;5053954;28;20208;-73
2022/02/03 07:38:26;;;;;;;52.80;25.48;;;7.80;95.40;;;;;;5053784;28;20220;-72
2022/02/03 07:40:53;;;;;;;147.07;30.33;;;7.80;95.40;;;;;;5053509;28;20258;-72
2022/02/03 07:43:21;;;;;;;22.15;20.65;;;7.80;95.50;;;;;;5053659;28;20287;-73
2022/02/03 07:45:48;;;;;;;22.02;20.52;;;7.90;96.50;;;;;;5053931;28;20287;-72
2022/02/03 07:48:18;;;;;;;23.50;21.50;;;7.90;96.60;;;;;;5053733;28;20215;-72
2022/02/03 07:50:45;;;;;;;22.83;21.27;;;8.00;96.10;;;;;;5053500;28;20216;-72
2022/02/03 07:53:12;;;;;;;23.13;21.63;;;8.00;95.30;;;;;;5053584;28;20201;-73
2022/02/03 07:55:40;;;;;;;23.75;22.17;;;8.00;95.30;;;;;;5053377;28;20196;-72
2022/02/03 07:58:07;;;;;;;23.92;22.15;;;8.00;95.30;;;;;;5053451;28;20222;-73
2022/02/03 08:00:34;;;;;;;23.85;21.75;;;8.10;95.00;;;;;;5053206;28;20231;-73
2022/02/03 08:03:04;;;;;;;23.48;22.00;;;8.00;94.70;;;;;;5053338;28;20199;-73
2022/02/03 08:05:34;;;;;;;612.67;90.90;;;7.90;95.00;;;;;;5053352;28;20216;-73
2022/02/03 08:08:06;;;;;;;25.38;23.67;;;8.10;98.30;;;;;;5053195;28;20200;-73
2022/02/03 08:10:39;;;;;;;27.08;24.98;;;8.20;97.30;;;;;;5052844;28;20227;-73
2022/02/03 08:13:11;;;;;;;25.67;23.88;;;8.20;97.40;;;;;;5053176;28;20605;-73
2022/02/03 08:15:40;;;;;;;22.15;20.10;;;8.20;96.90;;;;;;5053220;28;20200;-73
2022/02/03 08:18:12;;;;;;;22.52;21.05;;;8.30;96.70;;;;;;5052960;28;20224;-73
2022/02/03 08:20:47;;;;;;;22.65;20.88;;;8.40;95.70;;;;;;5052893;28;20559;-73
2022/02/03 08:23:41;;;;;;;21.13;19.65;;;8.50;95.20;;;;;;5053239;28;20196;-73
2022/02/03 08:26:14;;;;;;;22.20;20.53;;;8.60;94.80;;;;;;5053000;28;20197;-73
2022/02/03 08:29:08;;;;;;;55.20;23.07;;;8.70;94.30;;;;;;5052896;28;20929;-73
2022/02/03 08:31:41;;;;;;;22.07;20.53;;;8.80;96.10;;;;;;5052933;28;20509;-73
2022/02/03 08:34:13;;;;;;;22.80;21.40;;;9.00;95.20;;;;;;5052856;28;20470;-73
2022/02/03 08:36:41;;;;;;;22.50;21.00;;;9.20;94.00;;;;;;5052763;28;20457;-73
2022/02/03 08:39:10;;;;;;;22.00;20.60;;;9.30;92.90;;;;;;5052854;28;20528;-73
2022/02/03 08:41:37;;;;;;;25.27;23.40;;;9.40;92.30;;;;;;5052664;28;20478;-72
2022/02/03 08:44:06;;;;;;;40.17;24.17;;;9.40;91.40;;;;;;5052703;28;20455;-72
2022/02/03 08:46:33;;;;;;;24.37;22.77;;;9.50;92.40;;;;;;5052509;28;20813;-72
2022/02/03 08:49:03;;;;;;;24.10;22.50;;;9.50;91.80;;;;;;5052377;28;20946;-72
2022/02/03 08:51:30;;;;;;;25.73;24.13;;;9.60;90.60;;;;;;5052396;28;20479;-72
2022/02/03 08:54:05;;;;;;;23.10;21.60;;;9.60;90.40;;;;;;5052414;28;20457;-72
2022/02/03 08:56:40;;;;;;;24.20;22.40;;;9.70;90.10;;;;;;5052481;28;20450;-72
2022/02/03 08:59:48;;;;;;;22.90;21.60;;;9.70;89.50;;;;;;5052253;28;20936;-72
2022/02/03 09:41:18;;;;;;;21.33;20.10;;;10.90;81.40;;;;;;5045137;28;20493;-72
2022/02/03 09:52:36;;;;;;;22.67;21.47;;;10.90;82.00;;;;;;5055981;28;20575;-72
2022/02/03 09:55:22;;;;;;;21.40;20.30;;;11.00;81.20;;;;;;5055967;28;20451;-72
2022/02/03 09:57:54;;;;;;;21.27;20.17;;;11.20;80.30;;;;;;5055734;28;20521;-72
2022/02/03 10:00:39;;;;;;;20.50;19.40;;;11.20;80.10;;;;;;5055438;28;20974;-72
2022/02/03 10:03:11;;;;;;;20.30;19.30;;;11.30;79.40;;;;;;5055772;28;20968;-72
2022/02/03 10:05:55;;;;;;;22.07;20.87;;;11.40;80.30;;;;;;5055708;28;20452;-73
2022/02/03 10:08:22;;;;;;;19.97;18.97;;;11.50;81.00;;;;;;5055599;28;20804;-73
2022/02/03 10:10:49;;;;;;;22.17;20.97;;;11.50;78.90;;;;;;5055373;28;20472;-73
2022/02/03 10:13:18;;;;;;;22.23;21.10;;;11.60;78.60;;;;;;5055265;28;20852;-73
2022/02/03 10:15:46;;;;;;;22.20;21.10;;;11.70;78.00;;;;;;5055423;28;20501;-73
2022/02/03 10:18:26;;;;;;;21.23;20.17;;;11.90;77.60;;;;;;5055154;28;20991;-73
2022/02/03 10:20:56;;;;;;;22.70;21.50;;;12.00;77.30;;;;;;5054898;28;20545;-72
2022/02/03 10:23:24;;;;;;;21.67;20.60;;;11.90;77.30;;;;;;5055468;28;20451;-73
2022/02/03 10:25:56;;;;;;;23.03;21.77;;;11.90;77.20;;;;;;5055227;28;20482;-73
2022/02/03 10:28:27;;;;;;;21.40;20.30;;;12.00;76.60;;;;;;5055203;28;20454;-73
2022/02/03 10:31:00;;;;;;;23.73;22.63;;;11.90;77.70;;;;;;5054775;28;20520;-72
2022/02/03 10:33:33;;;;;;;24.63;23.33;;;12.00;78.00;;;;;;5055157;28;20482;-73
2022/02/03 10:36:08;;;;;;;26.10;24.80;;;12.20;75.90;;;;;;5054985;28;20443;-73
2022/02/03 10:50:09;;;;;;;21.93;20.90;;;12.30;76.60;;;;;;5053306;28;20466;-73
2022/02/03 10:55:52;;;;;;;22.47;21.37;;;12.60;74.10;;;;;;5054850;28;20526;-73
2022/02/03 11:01:22;;;;;;;22.90;21.80;;;12.50;73.30;;;;;;5054519;28;20470;-73
2022/02/03 11:06:51;;;;;;;22.37;21.17;;;12.60;72.90;;;;;;5050583;28;21034;-73
2022/02/03 11:09:29;;;;;;;23.37;22.07;;;12.60;73.80;;;;;;5054333;28;20530;-73
2022/02/03 11:11:58;;;;;;;21.67;20.60;;;12.70;74.10;;;;;;5054355;28;21049;-73
2022/02/03 11:14:26;;;;;;;22.73;21.63;;;12.90;73.20;;;;;;5054373;28;20531;-73
2022/02/03 11:16:53;;;;;;;24.27;23.07;;;12.80;73.20;;;;;;5054268;28;20458;-73
2022/02/03 11:19:26;;;;;;;23.17;22.07;;;12.90;72.30;;;;;;5053872;28;20478;-73
2022/02/03 11:22:03;;;;;;;21.60;20.50;;;13.00;72.60;;;;;;5054328;28;20478;-73
2022/02/03 11:24:35;;;;;;;21.97;20.77;;;12.90;75.90;;;;;;5054232;28;20451;-73
2022/02/03 11:27:20;;;;;;;22.40;21.10;;;12.90;73.20;;;;;;5054134;28;20455;-73
2022/02/03 11:44:36;;;;;;;22.40;21.30;;;13.20;70.90;;;;;;5050094;28;20937;-73
2022/02/03 11:47:29;;;;;;;22.27;21.17;;;13.10;72.70;;;;;;5053768;28;20809;-73
2022/02/03 11:53:14;;;;;;;23.10;21.80;;;13.20;71.50;;;;;;5042936;28;20793;-73
2022/02/03 11:58:44;;;;;;;22.77;21.57;;;13.30;71.30;;;;;;5053161;28;20472;-73
2022/02/03 12:04:23;;;;;;;24.00;22.60;;;13.50;71.40;;;;;;5053281;28;20508;-73
2022/02/03 12:13:00;;;;;;;21.80;20.70;;;13.40;70.60;;;;;;5053296;28;20434;-73
2022/02/03 12:15:49;;;;;;;21.70;20.60;;;13.50;70.90;;;;;;5053309;28;20451;-73
2022/02/03 12:21:30;;;;;;;23.43;22.13;;;13.60;70.30;;;;;;5045893;28;20463;-73
2022/02/03 12:24:17;;;;;;;23.90;22.50;;;13.60;71.30;;;;;;5053112;28;20451;-73
2022/02/03 12:26:49;;;;;;;22.40;21.10;;;13.50;73.10;;;;;;5053032;28;20509;-73
2022/02/03 12:29:21;;;;;;;24.03;22.83;;;13.60;71.00;;;;;;5052770;28;20984;-73
2022/02/03 12:32:03;;;;;;;25.00;23.70;;;13.70;70.20;;;;;;5052955;28;20985;-73
2022/02/03 12:37:28;;;;;;;23.53;22.33;;;13.70;70.00;;;;;;5052926;28;20801;-73
2022/02/03 12:40:00;;;;;;;24.37;23.03;;;13.80;70.60;;;;;;5052724;28;20451;-73
2022/02/03 12:42:46;;;;;;;22.73;21.53;;;13.80;71.60;;;;;;5052910;28;20456;-73
2022/02/03 12:45:17;;;;;;;22.77;21.57;;;13.90;69.20;;;;;;5052845;28;20459;-73
2022/02/03 12:47:49;;;;;;;23.67;22.20;;;13.90;69.70;;;;;;5052689;28;20458;-73
2022/02/03 12:50:20;;;;;;;25.50;23.80;;;13.90;68.90;;;;;;5052534;28;20475;-73
2022/02/03 12:52:47;;;;;;;23.80;22.30;;;13.90;69.40;;;;;;5052530;28;20538;-73
2022/02/03 12:55:28;;;;;;;24.33;22.93;;;14.00;69.20;;;;;;5052584;28;20462;-73
2022/02/03 12:57:56;;;;;;;23.93;22.63;;;14.00;70.50;;;;;;5052556;28;20849;-73
2022/02/03 13:00:30;;;;;;;22.83;21.63;;;14.00;69.90;;;;;;5052174;28;20570;-73
2022/02/03 13:03:01;;;;;;;24.10;22.80;;;14.00;69.80;;;;;;5052423;28;20489;-73
2022/02/03 13:05:30;;;;;;;22.90;21.77;;;14.00;68.60;;;;;;5052270;28;20466;-73
2022/02/03 13:07:59;;;;;;;23.97;22.70;;;13.90;69.10;;;;;;5052378;28;20932;-73
2022/02/03 13:10:29;;;;;;;23.23;21.97;;;13.80;69.50;;;;;;5052054;28;20475;-73
2022/02/03 13:13:12;;;;;;;23.13;21.93;;;13.70;70.20;;;;;;5051642;28;20517;-73
2022/02/03 13:15:41;;;;;;;23.77;22.47;;;13.70;69.90;;;;;;5052321;28;21064;-73
2022/02/03 13:18:14;;;;;;;24.40;23.20;;;13.60;70.20;;;;;;5052012;28;20844;-73
2022/02/03 13:20:48;;;;;;;23.70;22.50;;;13.70;70.20;;;;;;5051962;28;21219;-73
2022/02/03 13:23:18;;;;;;;21.83;20.73;;;13.60;70.60;;;;;;5052299;28;20458;-73
2022/02/03 13:25:56;;;;;;;26.53;25.13;;;13.40;72.80;;;;;;5052045;28;20449;-73
2022/02/03 13:28:35;;;;;;;23.63;22.33;;;13.40;71.40;;;;;;5052170;28;20925;-73
2022/02/03 13:31:21;;;;;;;22.90;21.70;;;13.30;74.10;;;;;;5051914;28;20477;-73
2022/02/03 13:34:07;;;;;;;24.50;23.20;;;13.40;73.80;;;;;;5052102;28;20454;-73
2022/02/03 13:36:39;;;;;;;24.60;23.10;;;13.40;71.60;;;;;;5051972;28;20462;-73
2022/02/03 13:39:11;;;;;;;23.87;22.47;;;13.20;71.60;;;;;;5052066;28;20485;-73
2022/02/03 13:41:41;;;;;;;23.03;21.63;;;13.20;71.40;;;;;;5051919;28;20478;-73
2022/02/03 13:44:10;;;;;;;22.57;21.40;;;13.20;72.00;;;;;;5052149;28;20474;-73
2022/02/03 13:46:38;;;;;;;23.77;22.37;;;13.40;71.60;;;;;;5051953;28;20458;-73
2022/02/03 13:49:14;;;;;;;22.23;21.03;;;13.40;71.70;;;;;;5051997;28;20500;-73
2022/02/03 13:51:42;;;;;;;25.17;23.87;;;13.30;71.70;;;;;;5051828;28;21007;-73
2022/02/03 13:54:33;;;;;;;22.33;20.93;;;13.20;71.60;;;;;;5051807;28;20460;-73
2022/02/03 14:19:39;;;;;;;26.40;25.10;;;13.10;72.80;;;;;;5030198;28;20474;-73
2022/02/03 14:22:08;;;;;;;25.07;23.70;;;13.20;72.10;;;;;;5051581;28;20444;-73
2022/02/03 14:27:32;;;;;;;22.50;21.30;;;13.10;73.20;;;;;;5013473;28;20938;-73
2022/02/03 14:30:03;;;;;;;21.83;20.73;;;13.20;72.40;;;;;;5045052;28;21056;-73
2022/02/03 14:32:35;;;;;;;24.10;22.80;;;13.00;72.60;;;;;;5055329;28;20907;-73
2022/02/03 14:35:05;;;;;;;24.67;23.07;;;12.90;73.30;;;;;;5055249;28;20452;-73
2022/02/03 14:37:43;;;;;;;26.87;25.67;;;12.80;74.30;;;;;;5055252;28;20447;-73
2022/02/03 14:40:34;;;;;;;23.30;22.00;;;12.90;73.50;;;;;;5054893;28;20964;-73
2022/02/03 14:43:03;;;;;;;28.23;26.33;;;12.80;73.60;;;;;;5055115;28;20459;-73
2022/02/03 14:45:30;;;;;;;25.50;23.93;;;12.80;73.70;;;;;;5055114;28;20478;-73
2022/02/03 14:47:57;;;;;;;26.50;25.10;;;12.70;73.90;;;;;;5054826;28;20816;-73
2022/02/03 14:50:24;;;;;;;23.67;22.37;;;12.60;74.30;;;;;;5054676;28;20505;-72
2022/02/03 14:52:58;;;;;;;22.53;21.13;;;12.60;76.00;;;;;;5054873;28;20455;-73
2022/02/03 14:58:18;;;;;;;23.80;22.30;;;12.60;75.10;;;;;;5055026;28;20516;-73
2022/02/03 15:00:47;;;;;;;28.40;26.50;;;12.40;75.20;;;;;;5054246;28;20488;-73
2022/02/03 15:03:15;;;;;;;25.63;24.10;;;12.30;75.50;;;;;;5054831;28;20538;-73
2022/02/03 15:05:43;;;;;;;26.70;25.40;;;12.30;75.70;;;;;;5054551;28;20805;-73
2022/02/03 15:08:19;;;;;;;24.57;23.17;;;12.30;75.90;;;;;;5054589;28;20460;-73
2022/02/03 15:10:52;;;;;;;23.70;22.30;;;12.10;76.60;;;;;;5054463;28;20834;-73
2022/02/03 15:13:36;;;;;;;25.67;24.10;;;12.00;77.60;;;;;;5054103;28;20472;-73
2022/02/03 15:16:03;;;;;;;25.53;24.13;;;11.90;77.90;;;;;;5054446;28;20933;-72
2022/02/03 15:18:31;;;;;;;26.27;24.77;;;11.90;77.60;;;;;;5054305;28;20478;-73
2022/02/03 15:20:59;;;;;;;23.87;22.57;;;11.90;77.40;;;;;;5054087;28;20475;-73
2022/02/03 15:23:28;;;;;;;24.53;23.10;;;11.90;77.90;;;;;;5054208;28;20463;-73
2022/02/03 15:25:55;;;;;;;23.93;22.73;;;11.80;78.20;;;;;;5054164;28;20624;-73
2022/02/03 15:28:22;;;;;;;23.40;22.10;;;11.90;78.50;;;;;;5054134;28;20810;-73
2022/02/03 15:30:49;;;;;;;24.00;22.60;;;11.80;78.40;;;;;;5053818;28;20563;-73
2022/02/03 15:33:17;;;;;;;24.47;23.17;;;11.80;82.10;;;;;;5054052;28;20953;-73
2022/02/03 15:35:48;;;;;;;21.70;20.60;;;11.70;82.70;;;;;;5053427;28;20451;-73
2022/02/03 15:38:17;;;;;;;22.50;21.30;;;11.70;81.10;;;;;;5053917;28;20455;-73
2022/02/03 15:40:47;;;;;;;33.70;31.30;;;11.60;81.80;;;;;;5053770;28;20991;-73
2022/02/03 15:43:25;;;;;;;26.03;24.37;;;11.60;81.90;;;;;;5053867;28;20933;-73
2022/02/03 15:45:56;;;;;;;24.40;23.10;;;11.70;81.30;;;;;;5053982;28;20455;-72
2022/02/03 15:48:32;;;;;;;23.37;22.07;;;11.60;80.70;;;;;;5053726;28;20512;-72
2022/02/03 15:51:11;;;;;;;23.17;21.87;;;11.50;80.40;;;;;;5053651;28;20478;-72
2022/02/03 15:56:46;;;;;;;24.10;22.70;;;11.40;83.00;;;;;;5053941;28;20434;-72
2022/02/03 16:02:36;;;;;;;23.13;21.93;;;11.20;81.90;;;;;;5053577;28;20450;-72
2022/02/03 16:13:50;;;;;;;22.97;21.57;;;10.90;85.10;;;;;;5053145;28;21000;-72
2022/02/03 16:19:01;;;;;;;22.70;21.40;;;10.80;84.30;;;;;;5053017;28;20470;-72
2022/02/03 16:21:34;;;;;;;21.23;20.13;;;10.70;85.70;;;;;;5052997;28;20510;-72
2022/02/03 16:24:16;;;;;;;25.47;23.57;;;10.60;86.90;;;;;;5053123;28;20547;-72
2022/02/03 16:41:01;;;;;;;21.83;20.47;;;10.30;87.10;;;;;;5052488;28;21007;-72
2022/02/03 16:51:52;;;;;;;23.27;21.87;;;10.20;84.90;;;;;;5052497;28;20462;-72
2022/02/03 16:54:19;;;;;;;20.67;19.47;;;10.20;90.00;;;;;;5052499;28;20454;-72
2022/02/03 16:56:51;;;;;;;21.67;20.23;;;10.10;88.30;;;;;;5052487;28;20505;-72
2022/02/03 16:59:18;;;;;;;20.37;19.10;;;10.00;87.10;;;;;;5052038;28;20851;-72
2022/02/03 17:01:46;;;;;;;22.00;20.70;;;9.90;86.50;;;;;;5052482;28;20566;-72
2022/02/03 17:04:17;;;;;;;22.10;20.80;;;9.80;87.30;;;;;;5052368;28;20921;-72
2022/02/03 17:06:44;;;;;;;22.90;21.50;;;9.80;87.50;;;;;;5052359;28;20465;-72
2022/02/03 17:09:11;;;;;;;20.77;19.50;;;9.80;86.90;;;;;;5052336;28;20506;-72
2022/02/03 17:11:41;;;;;;;24.87;22.77;;;9.70;87.00;;;;;;5052300;28;20480;-72
2022/02/03 17:14:08;;;;;;;23.40;21.90;;;9.70;87.00;;;;;;5051996;28;20473;-71
2022/02/03 17:16:35;;;;;;;22.80;21.30;;;9.70;88.10;;;;;;5052081;28;20545;-72
2022/02/03 17:19:04;;;;;;;21.87;20.40;;;9.70;93.90;;;;;;5051875;28;20482;-71
2022/02/03 17:21:31;;;;;;;22.07;20.87;;;9.70;90.80;;;;;;5051986;28;20857;-72
2022/02/03 17:23:58;;;;;;;18.70;17.50;;;9.60;89.90;;;;;;5052060;28;20473;-72
2022/02/03 17:26:32;;;;;;;20.97;19.70;;;9.60;89.40;;;;;;5052079;28;20487;-72
2022/02/03 17:29:06;;;;;;;20.30;19.10;;;9.50;88.50;;;;;;5051951;28;20463;-72
2022/02/03 17:31:48;;;;;;;20.53;19.43;;;9.50;89.10;;;;;;5052149;28;20471;-72
2022/02/03 17:54:18;;;;;;;21.40;20.20;;;9.20;89.90;;;;;;5051945;28;20446;-72
2022/02/03 18:10:40;;;;;;;19.67;18.20;;;9.00;92.20;;;;;;5013309;28;20563;-71
2022/02/03 18:30:08;;;;;;;20.55;19.10;;;8.80;95.30;;;;;;5013226;28;20825;-71
2022/02/03 18:32:45;;;;;;;18.90;17.77;;;8.80;94.00;;;;;;5041722;28;20254;-71
2022/02/03 18:35:26;;;;;;;21.77;20.23;;;8.70;92.90;;;;;;5055091;28;20875;-72
2022/02/03 18:52:17;;;;;;;20.90;19.60;;;8.40;90.40;;;;;;5046378;28;20227;-72
2022/02/03 18:55:02;;;;;;;21.27;19.90;;;8.40;90.60;;;;;;5055091;28;20539;-72
2022/02/03 18:57:40;;;;;;;22.85;21.35;;;8.40;90.50;;;;;;5054838;28;20544;-72
2022/02/03 19:03:26;;;;;;;22.17;20.77;;;8.40;90.30;;;;;;5089614;27;20617;-73
2022/02/03 20:06:30;;;;;;;21.50;20.02;;;7.30;93.70;;;;;;5077694;28;20726;-72
2022/02/03 20:09:06;;;;;;;22.02;20.63;;;7.30;94.60;;;;;;5088466;28;20206;-72
2022/02/03 20:11:34;;;;;;;23.58;21.88;;;7.30;94.00;;;;;;5088349;28;20262;-72
2022/02/03 20:14:01;;;;;;;24.20;22.55;;;7.20;93.80;;;;;;5076755;28;20760;-72
2022/02/03 20:16:29;;;;;;;21.15;19.85;;;7.20;93.80;;;;;;5074895;28;20275;-72
2022/02/03 20:18:56;;;;;;;19.48;18.27;;;7.20;93.50;;;;;;5074767;28;20215;-72
2022/02/03 20:21:24;;;;;;;21.80;20.30;;;7.30;93.30;;;;;;5074573;28;20230;-72
2022/02/03 20:23:59;;;;;;;21.60;20.25;;;7.30;93.10;;;;;;5075048;28;20232;-72
2022/02/03 20:26:26;;;;;;;22.45;21.00;;;7.30;92.70;;;;;;5074853;28;20204;-72
2022/02/03 20:28:52;;;;;;;21.55;20.25;;;7.30;92.80;;;;;;5074563;28;20537;-72
2022/02/03 20:31:19;;;;;;;20.85;19.50;;;7.30;92.40;;;;;;5074513;28;20247;-72
2022/02/03 20:33:46;;;;;;;22.08;20.70;;;7.30;92.40;;;;;;5074662;28;20276;-72
2022/02/03 20:36:13;;;;;;;22.05;20.70;;;7.30;92.20;;;;;;5074537;28;20203;-72
2022/02/03 20:38:40;;;;;;;31.17;22.67;;;7.20;92.20;;;;;;5074560;28;20690;-72
2022/02/03 20:41:09;;;;;;;1999.90;433.95;;;7.10;94.70;;;;;;5074102;28;20302;-72
2022/02/03 20:43:36;;;;;;;22.73;21.13;;;7.10;97.20;;;;;;5074367;28;20235;-72
2022/02/03 20:46:04;;;;;;;23.05;21.33;;;7.10;98.90;;;;;;5074300;28;20558;-72
2022/02/03 20:48:31;;;;;;;21.40;19.90;;;7.10;98.40;;;;;;5074278;28;20212;-72
2022/02/03 20:50:59;;;;;;;19.80;18.42;;;7.10;97.10;;;;;;5074039;28;20693;-73
2022/02/03 20:53:26;;;;;;;22.00;20.50;;;7.00;95.30;;;;;;5074319;28;20692;-72
2022/02/03 20:55:53;;;;;;;20.42;19.02;;;6.80;94.60;;;;;;5074198;28;20200;-72
2022/02/03 20:58:21;;;;;;;21.10;19.75;;;6.80;94.90;;;;;;5074080;28;20196;-72
2022/02/03 21:00:53;;;;;;;20.83;19.55;;;6.90;94.90;;;;;;5073864;28;20225;-72
2022/02/03 21:03:25;;;;;;;22.00;20.42;;;7.00;94.10;;;;;;5073966;28;20220;-72
2022/02/03 21:05:52;;;;;;;23.83;22.10;;;6.90;93.80;;;;;;5074082;28;20543;-73
2022/02/03 21:08:27;;;;;;;22.67;21.17;;;6.80;94.00;;;;;;5073838;28;20284;-72
2022/02/03 21:10:54;;;;;;;21.52;19.63;;;6.80;93.90;;;;;;5073665;28;20254;-72
2022/02/03 21:13:22;;;;;;;22.40;20.85;;;6.80;93.90;;;;;;5073685;28;20199;-72
2022/02/03 21:15:51;;;;;;;23.80;22.20;;;6.70;94.10;;;;;;5073896;28;20681;-73
2022/02/03 21:18:19;;;;;;;24.40;22.73;;;6.70;93.90;;;;;;5073457;28;20246;-72
2022/02/03 21:20:50;;;;;;;23.90;22.40;;;6.70;94.10;;;;;;5073670;28;20216;-72